createdAt,value
2019-03-26T00:00:33.018Z,80.44
2019-03-26T00:01:32.977Z,80.23
2019-03-26T00:02:33.017Z,81.58
2019-03-26T00:03:32.934Z,81.27
2019-03-26T00:04:32.937Z,81.27
2019-03-26T00:05:32.948Z,81.06
2019-03-26T00:06:32.906Z,81.06
2019-03-26T00:07:32.895Z,81.27
2019-03-26T00:08:32.895Z,81.79
2019-03-26T00:09:32.878Z,81.37
2019-03-26T00:10:32.876Z,80.85
2019-03-26T00:11:32.849Z,81.37
2019-03-26T00:12:32.840Z,81.58
2019-03-26T00:13:32.837Z,81.37
2019-03-26T00:14:32.817Z,81.41
2019-03-26T00:15:32.808Z,81.89
2019-03-26T00:16:32.808Z,81.06
2019-03-26T00:17:32.787Z,80.96
2019-03-26T00:18:32.769Z,81.48
2019-03-26T00:19:32.768Z,81.37
2019-03-26T00:20:32.749Z,81.06
2019-03-26T00:21:32.743Z,81.48
2019-03-26T00:22:32.733Z,81.10
2019-03-26T00:23:32.720Z,81.51
2019-03-26T00:24:32.711Z,82.03
2019-03-26T00:25:32.703Z,82.24
2019-03-26T00:26:32.676Z,82.45
2019-03-26T00:27:32.690Z,81.99
2019-03-26T00:28:32.695Z,82.03
2019-03-26T00:29:32.643Z,81.68
2019-03-26T00:30:32.639Z,81.30
2019-03-26T00:31:32.680Z,81.41
2019-03-26T00:32:32.645Z,81.51
2019-03-26T00:33:36.490Z,81.30
2019-03-26T00:34:32.613Z,81.62
2019-03-26T00:35:32.588Z,81.62
2019-03-26T00:36:32.871Z,81.93
2019-03-26T00:37:32.562Z,81.82
2019-03-26T00:38:32.576Z,81.62
2019-03-26T00:39:32.553Z,81.41
2019-03-26T00:40:32.530Z,81.06
2019-03-26T00:41:32.525Z,80.96
2019-03-26T00:42:32.497Z,81.30
2019-03-26T00:43:32.499Z,81.27
2019-03-26T00:44:32.485Z,81.41
2019-03-26T00:45:32.474Z,81.10
2019-03-26T00:46:32.468Z,81.82
2019-03-26T00:47:32.490Z,82.18
2019-03-26T00:48:32.434Z,82.39
2019-03-26T00:49:32.438Z,82.07
2019-03-26T00:50:32.438Z,82.28
2019-03-26T00:51:32.410Z,83.15
2019-03-26T00:52:32.400Z,82.90
2019-03-26T00:53:32.394Z,82.73
2019-03-26T00:54:32.379Z,83.15
2019-03-26T00:55:32.365Z,82.90
2019-03-26T00:56:32.350Z,83.04
2019-03-26T00:57:32.339Z,82.49
2019-03-26T00:58:32.327Z,82.63
2019-03-26T00:59:32.327Z,83.84
2019-03-26T01:00:32.327Z,82.70
2019-03-26T01:01:32.294Z,82.90
2019-03-26T01:02:32.313Z,82.39
2019-03-26T01:03:32.277Z,83.42
2019-03-26T01:04:33.384Z,83.32
2019-03-26T01:05:32.253Z,83.11
2019-03-26T01:06:32.246Z,81.62
2019-03-26T01:07:32.243Z,81.76
2019-03-26T01:08:32.227Z,81.76
2019-03-26T01:09:32.209Z,82.24
2019-03-26T01:10:32.203Z,82.28
2019-03-26T01:11:32.191Z,82.49
2019-03-26T01:12:32.187Z,83.22
2019-03-26T01:13:32.181Z,83.11
2019-03-26T01:14:32.167Z,82.34
2019-03-26T01:15:32.139Z,81.66
2019-03-26T01:16:32.135Z,81.56
2019-03-26T01:17:32.197Z,81.87
2019-03-26T01:18:32.108Z,83.01
2019-03-26T01:19:32.099Z,83.01
2019-03-26T01:20:32.093Z,82.39
2019-03-26T01:21:32.086Z,82.18
2019-03-26T01:22:32.073Z,83.42
2019-03-26T01:23:32.054Z,82.07
2019-03-26T01:24:32.046Z,81.97
2019-03-26T01:25:32.034Z,82.39
2019-03-26T01:26:32.017Z,82.70
2019-03-26T01:27:32.011Z,82.80
2019-03-26T01:28:32.060Z,82.90
2019-03-26T01:29:31.996Z,82.39
2019-03-26T01:30:32.018Z,82.18
2019-03-26T01:31:31.982Z,81.72
2019-03-26T01:32:31.956Z,81.82
2019-03-26T01:33:31.960Z,81.56
2019-03-26T01:34:45.217Z,81.87
2019-03-26T01:35:32.925Z,81.66
2019-03-26T01:36:31.914Z,81.66
2019-03-26T01:37:31.953Z,82.18
2019-03-26T01:38:31.893Z,82.07
2019-03-26T01:39:31.883Z,82.18
2019-03-26T01:40:31.870Z,83.36
2019-03-26T01:41:31.868Z,82.63
2019-03-26T01:42:31.856Z,83.56
2019-03-26T01:43:31.848Z,84.01
2019-03-26T01:44:31.819Z,84.60
2019-03-26T01:45:31.814Z,84.60
2019-03-26T01:46:31.811Z,84.50
2019-03-26T01:47:31.799Z,83.81
2019-03-26T01:48:31.790Z,84.19
2019-03-26T01:49:31.782Z,84.95
2019-03-26T01:50:31.767Z,84.95
2019-03-26T01:51:31.748Z,84.22
2019-03-26T01:52:31.757Z,84.12
2019-03-26T01:53:31.723Z,84.64
2019-03-26T01:54:31.723Z,85.10
2019-03-26T01:55:31.719Z,85.16
2019-03-26T01:56:31.693Z,86.09
2019-03-26T01:57:31.684Z,85.88
2019-03-26T01:58:31.710Z,85.26
2019-03-26T01:59:31.666Z,85.05
2019-03-26T02:00:31.659Z,84.33
2019-03-26T02:01:31.649Z,84.43
2019-03-26T02:02:31.634Z,85.26
2019-03-26T02:03:31.623Z,85.47
2019-03-26T02:04:31.622Z,85.68
2019-03-26T02:05:31.597Z,85.99
2019-03-26T02:06:31.590Z,85.78
2019-03-26T02:07:31.599Z,85.26
2019-03-26T02:08:31.567Z,85.88
2019-03-26T02:09:31.561Z,86.41
2019-03-26T02:10:31.562Z,85.68
2019-03-26T02:11:31.536Z,86.65
2019-03-26T02:12:31.526Z,86.41
2019-03-26T02:13:31.532Z,86.13
2019-03-26T02:14:31.500Z,86.30
2019-03-26T02:15:31.505Z,85.78
2019-03-26T02:16:31.484Z,86.41
2019-03-26T02:17:31.475Z,86.41
2019-03-26T02:18:31.495Z,85.16
2019-03-26T02:19:31.441Z,86.19
2019-03-26T02:20:31.438Z,85.78
2019-03-26T02:21:31.426Z,85.99
2019-03-26T02:22:31.412Z,85.88
2019-03-26T02:23:31.407Z,85.78
2019-03-26T02:24:31.403Z,85.64
2019-03-26T02:25:31.379Z,85.78
2019-03-26T02:26:31.378Z,86.19
2019-03-26T02:27:31.368Z,86.41
2019-03-26T02:28:31.348Z,86.61
2019-03-26T02:29:31.342Z,86.82
2019-03-26T02:30:31.329Z,86.09
2019-03-26T02:31:31.346Z,86.61
2019-03-26T02:32:31.313Z,86.30
2019-03-26T02:33:31.304Z,86.72
2019-03-26T02:34:31.291Z,86.09
2019-03-26T02:35:31.280Z,86.72
2019-03-26T02:36:31.264Z,85.88
2019-03-26T02:37:31.253Z,86.05
2019-03-26T02:38:31.261Z,86.41
2019-03-26T02:39:31.250Z,85.57
2019-03-26T02:40:31.223Z,86.16
2019-03-26T02:41:31.220Z,86.05
2019-03-26T02:42:40.671Z,86.36
2019-03-26T02:44:13.498Z,84.91
2019-03-26T02:45:13.327Z,84.67
2019-03-26T02:46:13.362Z,84.60
2019-03-26T02:47:13.306Z,84.60
2019-03-26T02:48:13.297Z,84.19
2019-03-26T02:49:13.302Z,85.02
2019-03-26T02:50:13.301Z,86.05
2019-03-26T02:51:13.271Z,85.02
2019-03-26T02:52:13.257Z,84.50
2019-03-26T02:53:13.291Z,85.12
2019-03-26T02:54:13.242Z,84.88
2019-03-26T02:55:13.238Z,84.50
2019-03-26T02:56:13.397Z,84.36
2019-03-26T02:57:13.205Z,83.77
2019-03-26T02:58:13.242Z,83.98
2019-03-26T02:59:13.185Z,84.08
2019-03-26T03:00:13.202Z,85.02
2019-03-26T03:01:13.174Z,85.02
2019-03-26T03:02:13.230Z,85.12
2019-03-26T03:03:13.150Z,85.33
2019-03-26T03:04:13.161Z,84.60
2019-03-26T03:05:13.125Z,85.16
2019-03-26T03:06:13.124Z,84.91
2019-03-26T03:07:13.100Z,84.19
2019-03-26T03:08:13.086Z,84.70
2019-03-26T03:09:13.074Z,84.70
2019-03-26T03:10:13.056Z,84.64
2019-03-26T03:11:13.063Z,84.50
2019-03-26T03:12:13.048Z,84.60
2019-03-26T03:13:13.038Z,84.60
2019-03-26T03:14:13.022Z,84.64
2019-03-26T03:15:13.015Z,84.39
2019-03-26T03:16:13.028Z,84.70
2019-03-26T03:17:13.001Z,84.08
2019-03-26T03:18:13.005Z,84.29
2019-03-26T03:19:15.817Z,84.29
2019-03-26T03:20:12.969Z,84.60
2019-03-26T03:21:12.943Z,83.36
2019-03-26T03:22:12.935Z,84.08
2019-03-26T03:23:12.925Z,83.04
2019-03-26T03:24:12.907Z,84.39
2019-03-26T03:25:12.905Z,84.12
2019-03-26T03:26:12.904Z,84.43
2019-03-26T03:27:12.889Z,86.30
2019-03-26T03:28:12.886Z,86.41
2019-03-26T03:29:12.870Z,85.05
2019-03-26T03:30:12.855Z,84.08
2019-03-26T03:31:12.842Z,84.08
2019-03-26T03:32:12.848Z,84.19
2019-03-26T03:33:12.817Z,84.60
2019-03-26T03:34:12.816Z,83.32
2019-03-26T03:35:12.829Z,82.84
2019-03-26T03:36:12.786Z,83.46
2019-03-26T03:37:12.789Z,83.77
2019-03-26T03:38:12.796Z,84.50
2019-03-26T03:39:12.760Z,84.50
2019-03-26T03:40:12.755Z,84.53
2019-03-26T03:41:12.731Z,84.19
2019-03-26T03:42:12.731Z,84.12
2019-03-26T03:43:12.723Z,84.74
2019-03-26T03:44:12.696Z,84.81
2019-03-26T03:45:12.698Z,84.95
2019-03-26T03:46:12.688Z,84.64
2019-03-26T03:47:12.668Z,83.87
2019-03-26T03:48:12.655Z,84.01
2019-03-26T03:49:12.648Z,84.64
2019-03-26T03:50:12.662Z,86.05
2019-03-26T03:51:12.632Z,84.70
2019-03-26T03:52:12.629Z,84.70
2019-03-26T03:53:12.607Z,84.50
2019-03-26T03:54:12.606Z,84.70
2019-03-26T03:55:12.588Z,83.98
2019-03-26T03:56:12.574Z,84.70
2019-03-26T03:57:12.558Z,83.98
2019-03-26T03:58:12.551Z,84.19
2019-03-26T03:59:12.543Z,82.90
2019-03-26T04:00:12.523Z,83.73
2019-03-26T04:01:12.527Z,83.94
2019-03-26T04:02:12.587Z,82.49
2019-03-26T04:03:12.503Z,83.22
2019-03-26T04:04:12.502Z,83.32
2019-03-26T04:05:12.487Z,83.15
2019-03-26T04:06:12.467Z,83.53
2019-03-26T04:07:12.476Z,83.25
2019-03-26T04:08:12.443Z,83.22
2019-03-26T04:09:12.433Z,83.67
2019-03-26T04:10:12.418Z,84.67
2019-03-26T04:11:12.467Z,83.94
2019-03-26T04:12:12.422Z,83.01
2019-03-26T04:13:12.401Z,82.65
2019-03-26T04:14:12.376Z,81.72
2019-03-26T04:15:12.372Z,82.24
2019-03-26T04:16:12.348Z,81.72
2019-03-26T04:17:12.373Z,81.51
2019-03-26T04:18:12.332Z,81.72
2019-03-26T04:19:12.326Z,81.72
2019-03-26T04:20:12.318Z,82.14
2019-03-26T04:21:12.297Z,81.45
2019-03-26T04:22:12.290Z,81.51
2019-03-26T04:23:12.284Z,81.51
2019-03-26T04:24:12.265Z,81.97
2019-03-26T04:25:12.269Z,82.07
2019-03-26T04:26:12.253Z,81.76
2019-03-26T04:27:12.236Z,82.49
2019-03-26T04:28:12.266Z,81.76
2019-03-26T04:29:12.215Z,82.39
2019-03-26T04:30:12.210Z,81.35
2019-03-26T04:31:12.202Z,81.56
2019-03-26T04:32:12.202Z,81.87
2019-03-26T04:33:12.166Z,82.49
2019-03-26T04:34:12.156Z,82.18
2019-03-26T04:35:12.169Z,81.97
2019-03-26T04:36:24.862Z,81.97
2019-03-26T04:37:13.122Z,81.80
2019-03-26T04:38:12.158Z,81.56
2019-03-26T04:39:12.103Z,82.32
2019-03-26T04:40:12.086Z,82.53
2019-03-26T04:41:12.104Z,83.15
2019-03-26T04:42:12.073Z,82.84
2019-03-26T04:43:12.073Z,82.94
2019-03-26T04:44:12.050Z,82.77
2019-03-26T04:45:12.140Z,82.87
2019-03-26T04:46:12.058Z,82.63
2019-03-26T04:47:12.026Z,82.53
2019-03-26T04:48:12.050Z,83.04
2019-03-26T04:49:12.014Z,82.67
2019-03-26T04:50:11.980Z,83.18
2019-03-26T04:51:11.969Z,83.36
2019-03-26T04:52:11.970Z,84.12
2019-03-26T04:53:11.943Z,84.50
2019-03-26T04:54:12.004Z,84.08
2019-03-26T04:55:11.938Z,84.60
2019-03-26T04:56:11.921Z,84.19
2019-03-26T04:57:11.907Z,84.70
2019-03-26T04:58:11.903Z,84.50
2019-03-26T04:59:11.885Z,83.98
2019-03-26T05:00:11.882Z,84.29
2019-03-26T05:01:11.890Z,84.60
2019-03-26T05:02:11.856Z,84.08
2019-03-26T05:03:11.841Z,84.70
2019-03-26T05:04:11.839Z,84.08
2019-03-26T05:05:12.533Z,84.29
2019-03-26T05:06:11.824Z,84.19
2019-03-26T05:07:11.801Z,84.43
2019-03-26T05:08:11.796Z,85.12
2019-03-26T05:09:11.781Z,85.16
2019-03-26T05:10:11.774Z,84.81
2019-03-26T05:11:11.756Z,85.22
2019-03-26T05:12:11.775Z,85.57
2019-03-26T05:13:11.768Z,85.57
2019-03-26T05:14:11.734Z,86.51
2019-03-26T05:15:11.726Z,85.57
2019-03-26T05:16:11.708Z,85.47
2019-03-26T05:17:11.699Z,85.99
2019-03-26T05:18:11.718Z,86.24
2019-03-26T05:19:11.676Z,86.55
2019-03-26T05:20:11.669Z,86.44
2019-03-26T05:21:11.756Z,86.44
2019-03-26T05:22:23.474Z,86.34
2019-03-26T05:23:12.642Z,86.34
2019-03-26T05:24:11.624Z,86.82
2019-03-26T05:25:11.604Z,86.61
2019-03-26T05:26:11.601Z,86.51
2019-03-26T05:27:11.611Z,86.65
2019-03-26T05:28:11.583Z,86.86
2019-03-26T05:29:11.578Z,87.38
2019-03-26T05:30:11.578Z,87.38
2019-03-26T05:31:11.546Z,87.38
2019-03-26T05:32:11.541Z,87.07
2019-03-26T05:33:11.548Z,87.90
2019-03-26T05:34:11.511Z,88.00
2019-03-26T05:35:11.511Z,88.42
2019-03-26T05:36:11.487Z,88.31
2019-03-26T05:37:11.484Z,88.84
2019-03-26T05:38:11.473Z,88.62
2019-03-26T05:39:11.455Z,89.04
2019-03-26T05:40:11.487Z,88.84
2019-03-26T05:41:11.458Z,88.94
2019-03-26T05:42:11.425Z,89.29
2019-03-26T05:43:11.429Z,89.04
2019-03-26T05:44:11.424Z,89.25
2019-03-26T05:45:11.395Z,89.04
2019-03-26T05:46:11.384Z,89.25
2019-03-26T05:47:11.450Z,89.15
2019-03-26T05:48:11.369Z,89.04
2019-03-26T05:49:11.356Z,89.15
2019-03-26T05:50:11.341Z,89.15
2019-03-26T05:51:11.372Z,89.56
2019-03-26T05:52:11.394Z,89.98
2019-03-26T05:53:11.304Z,89.15
2019-03-26T05:54:11.304Z,89.25
2019-03-26T05:55:11.291Z,89.36
2019-03-26T05:56:11.275Z,88.94
2019-03-26T05:57:11.261Z,89.04
2019-03-26T05:58:11.257Z,88.62
2019-03-26T05:59:11.313Z,89.15
2019-03-26T06:00:11.256Z,88.73
2019-03-26T06:01:11.297Z,89.04
2019-03-26T06:02:14.378Z,88.84
2019-03-26T06:03:12.213Z,88.94
2019-03-26T06:04:11.216Z,88.00
2019-03-26T06:05:11.184Z,88.00
2019-03-26T06:06:11.169Z,87.59
2019-03-26T06:07:11.157Z,87.69
2019-03-26T06:08:11.146Z,87.59
2019-03-26T06:09:11.143Z,87.59
2019-03-26T06:10:11.185Z,87.27
2019-03-26T06:11:11.113Z,87.38
2019-03-26T06:12:11.111Z,86.13
2019-03-26T06:13:11.118Z,85.99
2019-03-26T06:14:11.090Z,86.41
2019-03-26T06:15:11.085Z,86.30
2019-03-26T06:16:11.056Z,84.95
2019-03-26T06:17:11.055Z,85.22
2019-03-26T06:18:11.038Z,84.12
2019-03-26T06:19:11.073Z,84.22
2019-03-26T06:20:11.018Z,84.19
2019-03-26T06:21:11.012Z,84.39
2019-03-26T06:22:10.992Z,84.70
2019-03-26T06:23:10.989Z,84.19
2019-03-26T06:24:10.972Z,83.36
2019-03-26T06:25:11.046Z,83.11
2019-03-26T06:26:10.956Z,82.49
2019-03-26T06:27:10.951Z,82.49
2019-03-26T06:28:10.942Z,82.49
2019-03-26T06:29:10.922Z,83.04
2019-03-26T06:30:10.925Z,82.70
2019-03-26T06:31:10.899Z,82.90
2019-03-26T06:32:10.897Z,81.97
2019-03-26T06:33:11.042Z,81.24
2019-03-26T06:34:10.881Z,81.93
2019-03-26T06:35:10.859Z,81.51
2019-03-26T06:36:10.849Z,81.30
2019-03-26T06:37:17.763Z,81.41
2019-03-26T06:38:11.829Z,81.51
2019-03-26T06:39:10.814Z,81.30
2019-03-26T06:40:10.798Z,80.79
2019-03-26T06:41:10.808Z,80.68
2019-03-26T06:42:10.793Z,80.33
2019-03-26T06:43:10.776Z,79.82
2019-03-26T06:44:10.775Z,79.41
2019-03-26T06:45:10.755Z,79.61
2019-03-26T06:46:10.741Z,79.71
2019-03-26T06:47:10.731Z,80.13
2019-03-26T06:48:10.722Z,79.82
2019-03-26T06:49:10.732Z,79.20
2019-03-26T06:50:10.699Z,78.99
2019-03-26T06:51:10.730Z,79.30
2019-03-26T06:52:10.668Z,79.10
2019-03-26T06:53:10.785Z,79.10
2019-03-26T06:54:10.675Z,78.68
2019-03-26T06:55:10.653Z,78.78
2019-03-26T06:56:10.625Z,78.75
2019-03-26T06:57:10.622Z,77.81
2019-03-26T06:58:10.631Z,77.71
2019-03-26T06:59:10.604Z,78.02
2019-03-26T07:00:10.586Z,78.47
2019-03-26T07:01:10.574Z,77.71
2019-03-26T07:02:10.553Z,77.61
2019-03-26T07:03:10.586Z,77.71
2019-03-26T07:04:10.560Z,76.53
2019-03-26T07:05:10.530Z,77.47
2019-03-26T07:06:10.518Z,77.26
2019-03-26T07:07:10.518Z,77.36
2019-03-26T07:08:10.491Z,77.57
2019-03-26T07:09:10.483Z,77.61
2019-03-26T07:10:10.471Z,76.95
2019-03-26T07:11:10.470Z,77.47
2019-03-26T07:12:10.465Z,77.78
2019-03-26T07:13:10.489Z,76.53
2019-03-26T07:14:10.457Z,77.36
2019-03-26T07:15:10.427Z,76.43
2019-03-26T07:16:10.411Z,76.64
2019-03-26T07:17:10.394Z,75.92
2019-03-26T07:18:10.391Z,76.50
2019-03-26T07:19:10.441Z,76.02
2019-03-26T07:20:10.357Z,76.53
2019-03-26T07:21:10.351Z,76.23
2019-03-26T07:22:10.344Z,77.61
2019-03-26T07:23:10.337Z,77.71
2019-03-26T07:24:10.314Z,76.32
2019-03-26T07:25:10.306Z,76.43
2019-03-26T07:26:10.294Z,76.74
2019-03-26T07:27:10.309Z,76.36
2019-03-26T07:28:10.273Z,76.15
2019-03-26T07:29:10.271Z,76.12
2019-03-26T07:30:10.261Z,76.15
2019-03-26T07:31:10.241Z,76.02
2019-03-26T07:32:10.231Z,76.32
2019-03-26T07:33:10.219Z,76.02
2019-03-26T07:34:10.275Z,75.36
2019-03-26T07:35:10.204Z,75.57
2019-03-26T07:36:10.182Z,74.02
2019-03-26T07:37:10.180Z,75.26
2019-03-26T07:38:10.162Z,74.74
2019-03-26T07:39:10.174Z,74.95
2019-03-26T07:40:10.141Z,75.15
2019-03-26T07:41:10.129Z,74.91
2019-03-26T07:42:10.118Z,74.71
2019-03-26T07:43:10.112Z,74.40
2019-03-26T07:44:10.106Z,74.81
2019-03-26T07:45:10.094Z,73.77
2019-03-26T07:46:10.147Z,73.84
2019-03-26T07:47:10.065Z,73.74
2019-03-26T07:48:10.054Z,73.84
2019-03-26T07:49:10.039Z,73.50
2019-03-26T07:50:10.049Z,72.98
2019-03-26T07:51:10.025Z,73.08
2019-03-26T07:52:10.023Z,72.85
2019-03-26T07:53:10.006Z,72.22
2019-03-26T07:54:09.987Z,72.12
2019-03-26T07:55:09.978Z,71.57
2019-03-26T07:56:09.972Z,71.16
2019-03-26T07:57:09.951Z,71.06
2019-03-26T07:58:09.970Z,71.26
2019-03-26T07:59:09.932Z,71.37
2019-03-26T08:00:09.922Z,71.88
2019-03-26T08:01:09.919Z,71.98
2019-03-26T08:02:09.906Z,72.40
2019-03-26T08:03:09.940Z,71.67
2019-03-26T08:04:12.426Z,71.47
2019-03-26T08:05:09.868Z,71.02
2019-03-26T08:06:09.873Z,70.72
2019-03-26T08:07:09.862Z,70.40
2019-03-26T08:08:09.847Z,70.51
2019-03-26T08:09:09.846Z,70.89
2019-03-26T08:10:09.815Z,70.61
2019-03-26T08:11:09.804Z,70.27
2019-03-26T08:12:09.796Z,70.20
2019-03-26T08:13:09.787Z,70.61
2019-03-26T08:14:09.830Z,70.61
2019-03-26T08:15:09.763Z,70.17
2019-03-26T08:16:10.034Z,69.54
2019-03-26T08:17:09.782Z,69.65
2019-03-26T08:18:09.735Z,69.34
2019-03-26T08:19:09.803Z,69.31
2019-03-26T08:20:12.496Z,69.20
2019-03-26T08:21:09.701Z,69.82
2019-03-26T08:22:09.788Z,68.69
2019-03-26T08:23:09.678Z,68.17
2019-03-26T08:24:09.680Z,67.83
2019-03-26T08:25:09.684Z,67.21
2019-03-26T08:26:09.644Z,66.87
2019-03-26T08:27:09.633Z,67.49
2019-03-26T08:28:09.633Z,67.08
2019-03-26T08:29:09.616Z,66.87
2019-03-26T08:30:09.594Z,66.05
2019-03-26T08:31:09.633Z,66.56
2019-03-26T08:32:09.589Z,66.05
2019-03-26T08:33:09.575Z,66.22
2019-03-26T08:34:09.558Z,66.12
2019-03-26T08:35:09.552Z,65.40
2019-03-26T08:36:09.532Z,65.40
2019-03-26T08:37:09.540Z,65.26
2019-03-26T08:38:12.873Z,66.30
2019-03-26T08:39:09.492Z,65.16
2019-03-26T08:40:09.484Z,65.89
2019-03-26T08:41:09.478Z,65.81
2019-03-26T08:42:09.469Z,66.33
2019-03-26T08:43:09.457Z,65.53
2019-03-26T08:44:09.465Z,66.15
2019-03-26T08:45:09.431Z,66.91
2019-03-26T08:46:09.433Z,66.49
2019-03-26T08:47:09.410Z,67.80
2019-03-26T08:48:09.402Z,67.52
2019-03-26T08:49:09.422Z,67.18
2019-03-26T08:50:09.386Z,66.46
2019-03-26T08:51:09.372Z,66.77
2019-03-26T08:52:09.373Z,65.74
2019-03-26T08:53:18.897Z,66.36
2019-03-26T08:54:52.526Z,65.22
2019-03-26T08:55:52.464Z,64.29
2019-03-26T08:56:52.453Z,64.29
2019-03-26T08:57:52.440Z,64.27
2019-03-26T08:58:52.433Z,64.58
2019-03-26T08:59:52.428Z,63.34
2019-03-26T09:00:52.422Z,63.54
2019-03-26T09:01:52.396Z,63.54
2019-03-26T09:02:52.389Z,63.54
2019-03-26T09:03:52.376Z,63.47
2019-03-26T09:04:52.428Z,63.54
2019-03-26T09:05:52.358Z,62.72
2019-03-26T09:06:52.353Z,62.00
2019-03-26T09:07:52.390Z,62.54
2019-03-26T09:08:52.324Z,63.27
2019-03-26T09:09:52.320Z,63.27
2019-03-26T09:10:52.316Z,62.96
2019-03-26T09:11:52.295Z,62.82
2019-03-26T09:12:52.279Z,62.70
2019-03-26T09:13:52.282Z,61.98
2019-03-26T09:14:52.255Z,61.46
2019-03-26T09:15:52.249Z,61.56
2019-03-26T09:16:52.238Z,60.81
2019-03-26T09:17:52.225Z,60.81
2019-03-26T09:18:52.221Z,60.40
2019-03-26T09:19:52.207Z,60.09
2019-03-26T09:20:52.198Z,59.65
2019-03-26T09:21:52.181Z,59.89
2019-03-26T09:22:52.179Z,59.75
2019-03-26T09:23:52.163Z,57.80
2019-03-26T09:24:52.150Z,58.31
2019-03-26T09:25:52.137Z,59.22
2019-03-26T09:26:52.122Z,58.42
2019-03-26T09:27:52.563Z,58.52
2019-03-26T09:28:52.105Z,57.98
2019-03-26T09:29:52.100Z,57.88
2019-03-26T09:30:52.095Z,56.23
2019-03-26T09:31:52.093Z,57.80
2019-03-26T09:32:52.063Z,58.18
2019-03-26T09:33:52.044Z,58.39
2019-03-26T09:34:52.053Z,58.18
2019-03-26T09:35:52.031Z,58.39
2019-03-26T09:36:52.028Z,58.29
2019-03-26T09:37:52.020Z,58.18
2019-03-26T09:38:52.000Z,58.29
2019-03-26T09:39:51.994Z,58.31
2019-03-26T09:40:51.976Z,59.45
2019-03-26T09:41:51.962Z,59.47
2019-03-26T09:42:51.966Z,59.17
2019-03-26T09:43:51.978Z,59.17
2019-03-26T09:44:51.935Z,58.03
2019-03-26T09:45:51.935Z,58.24
2019-03-26T09:46:51.917Z,58.54
2019-03-26T09:47:51.902Z,58.86
2019-03-26T09:48:51.905Z,59.30
2019-03-26T09:49:51.899Z,59.06
2019-03-26T09:50:51.865Z,58.34
2019-03-26T09:51:51.852Z,59.27
2019-03-26T09:52:51.857Z,59.30
2019-03-26T09:53:51.849Z,59.50
2019-03-26T09:54:51.843Z,60.02
2019-03-26T09:55:51.825Z,59.70
2019-03-26T09:56:51.809Z,60.02
2019-03-26T09:57:51.803Z,60.43
2019-03-26T09:58:51.833Z,60.63
2019-03-26T09:59:51.791Z,61.15
2019-03-26T10:00:51.865Z,61.98
2019-03-26T10:01:51.754Z,61.74
2019-03-26T10:02:51.761Z,61.43
2019-03-26T10:03:51.721Z,60.58
2019-03-26T10:05:00.386Z,60.86
2019-03-26T10:06:33.864Z,60.73
2019-03-26T10:07:33.833Z,60.52
2019-03-26T10:08:33.826Z,60.86
2019-03-26T10:09:33.810Z,61.88
2019-03-26T10:10:33.942Z,61.88
2019-03-26T10:11:33.790Z,62.40
2019-03-26T10:12:33.788Z,62.92
2019-03-26T10:13:36.253Z,63.15
2019-03-26T10:14:33.763Z,64.07
2019-03-26T10:16:24.209Z,63.56
2019-03-26T10:17:24.183Z,62.95
2019-03-26T10:18:24.169Z,62.95
2019-03-26T10:19:24.164Z,63.28
2019-03-26T10:20:24.141Z,62.66
2019-03-26T10:21:24.128Z,63.31
2019-03-26T10:22:24.123Z,63.72
2019-03-26T10:23:24.107Z,64.24
2019-03-26T10:24:24.105Z,64.24
2019-03-26T10:25:24.082Z,63.96
2019-03-26T10:26:24.121Z,63.54
2019-03-26T10:27:24.062Z,63.34
2019-03-26T10:28:24.067Z,63.34
2019-03-26T10:29:29.920Z,63.21
2019-03-26T10:30:25.032Z,64.24
2019-03-26T10:31:24.024Z,63.62
2019-03-26T10:32:24.009Z,63.49
2019-03-26T10:33:24.001Z,62.56
2019-03-26T10:34:24.000Z,62.77
2019-03-26T10:35:24.012Z,62.79
2019-03-26T10:36:23.979Z,63.21
2019-03-26T10:37:23.953Z,63.42
2019-03-26T10:38:23.942Z,63.62
2019-03-26T10:39:23.929Z,63.72
2019-03-26T10:40:23.919Z,63.42
2019-03-26T10:41:23.907Z,63.72
2019-03-26T10:42:23.918Z,64.41
2019-03-26T10:43:23.889Z,63.82
2019-03-26T10:44:23.899Z,63.21
2019-03-26T10:45:23.864Z,63.93
2019-03-26T10:46:23.857Z,64.21
2019-03-26T10:47:23.855Z,64.41
2019-03-26T10:48:23.850Z,64.21
2019-03-26T10:49:23.825Z,64.24
2019-03-26T10:50:23.819Z,64.34
2019-03-26T10:51:23.813Z,64.47
2019-03-26T10:52:23.795Z,65.30
2019-03-26T10:53:23.793Z,65.61
2019-03-26T10:54:23.839Z,65.50
2019-03-26T10:55:23.777Z,66.43
2019-03-26T10:56:23.758Z,66.43
2019-03-26T10:57:23.760Z,67.36
2019-03-26T10:58:23.766Z,67.36
2019-03-26T10:59:23.738Z,67.66
2019-03-26T11:00:23.756Z,67.15
2019-03-26T11:01:23.707Z,67.36
2019-03-26T11:02:23.994Z,66.84
2019-03-26T11:03:23.686Z,66.22
2019-03-26T11:04:23.678Z,66.71
2019-03-26T11:05:23.675Z,66.40
2019-03-26T11:06:23.648Z,67.02
2019-03-26T11:07:23.649Z,66.09
2019-03-26T11:08:23.633Z,66.27
2019-03-26T11:09:27.112Z,66.06
2019-03-26T11:10:23.606Z,66.24
2019-03-26T11:11:23.607Z,65.72
2019-03-26T11:12:23.593Z,64.48
2019-03-26T11:13:23.572Z,63.84
2019-03-26T11:14:23.561Z,63.94
2019-03-26T11:15:23.575Z,63.53
2019-03-26T11:16:23.557Z,63.12
2019-03-26T11:17:23.592Z,63.43
2019-03-26T11:18:23.521Z,63.25
2019-03-26T11:19:23.498Z,63.35
2019-03-26T11:20:23.495Z,63.35
2019-03-26T11:21:23.498Z,63.35
2019-03-26T11:22:23.483Z,63.25
2019-03-26T11:23:23.461Z,63.15
2019-03-26T11:24:23.456Z,63.15
2019-03-26T11:25:23.527Z,63.15
2019-03-26T11:26:23.514Z,63.87
2019-03-26T11:27:23.435Z,63.25
2019-03-26T11:28:23.415Z,62.84
2019-03-26T11:29:23.411Z,62.63
2019-03-26T11:30:23.385Z,63.46
2019-03-26T11:31:23.377Z,63.35
2019-03-26T11:32:23.368Z,62.63
2019-03-26T11:33:23.369Z,62.95
2019-03-26T11:34:23.366Z,61.91
2019-03-26T11:35:23.331Z,62.02
2019-03-26T11:36:23.318Z,62.53
2019-03-26T11:37:23.319Z,61.71
2019-03-26T11:38:23.298Z,61.91
2019-03-26T11:39:32.656Z,62.74
2019-03-26T11:40:24.298Z,62.77
2019-03-26T11:41:23.289Z,62.97
2019-03-26T11:42:23.260Z,63.28
2019-03-26T11:43:23.256Z,64.41
2019-03-26T11:44:23.241Z,64.31
2019-03-26T11:45:23.235Z,65.95
2019-03-26T11:46:23.211Z,66.09
2019-03-26T11:47:23.208Z,68.15
2019-03-26T11:48:23.196Z,69.59
2019-03-26T11:49:23.194Z,69.70
2019-03-26T11:50:23.183Z,70.65
2019-03-26T11:51:23.164Z,71.37
2019-03-26T11:52:23.150Z,71.82
2019-03-26T11:53:23.130Z,72.51
2019-03-26T11:54:23.128Z,73.47
2019-03-26T11:55:23.182Z,74.29
2019-03-26T11:56:23.107Z,74.19
2019-03-26T11:57:23.094Z,75.36
2019-03-26T11:58:30.589Z,75.67
2019-03-26T11:59:24.070Z,75.70
2019-03-26T12:00:23.108Z,77.35
2019-03-26T12:01:23.048Z,77.35
2019-03-26T12:02:23.130Z,78.38
2019-03-26T12:03:23.037Z,78.69
2019-03-26T12:04:23.025Z,78.73
2019-03-26T12:05:23.018Z,79.11
2019-03-26T12:06:22.992Z,79.45
2019-03-26T12:07:22.996Z,79.86
2019-03-26T12:08:22.985Z,79.31
2019-03-26T12:09:22.967Z,78.69
2019-03-26T12:10:22.961Z,78.90
2019-03-26T12:11:22.991Z,79.21
2019-03-26T12:12:22.925Z,79.41
2019-03-26T12:13:22.919Z,78.59
2019-03-26T12:14:22.899Z,79.41
2019-03-26T12:15:22.903Z,79.52
2019-03-26T12:16:22.887Z,79.83
2019-03-26T12:17:22.878Z,79.11
2019-03-26T12:18:22.931Z,79.93
2019-03-26T12:19:22.900Z,80.65
2019-03-26T12:20:22.866Z,80.65
2019-03-26T12:21:22.948Z,80.96
2019-03-26T12:22:22.820Z,81.58
2019-03-26T12:23:22.810Z,81.07
2019-03-26T12:24:22.860Z,80.65
2019-03-26T12:25:22.781Z,80.86
2019-03-26T12:26:22.773Z,80.55
2019-03-26T12:27:22.761Z,80.51
2019-03-26T12:28:22.775Z,81.03
2019-03-26T12:29:22.750Z,81.27
2019-03-26T12:30:22.781Z,81.27
2019-03-26T12:31:22.734Z,81.17
2019-03-26T12:32:22.704Z,82.55
2019-03-26T12:33:22.706Z,83.44
2019-03-26T12:34:22.678Z,82.51
2019-03-26T12:35:22.678Z,81.79
2019-03-26T12:36:22.706Z,81.99
2019-03-26T12:37:22.656Z,82.57
2019-03-26T12:38:22.633Z,81.71
2019-03-26T12:39:22.644Z,81.09
2019-03-26T12:40:22.618Z,81.16
2019-03-26T12:41:22.616Z,80.16
2019-03-26T12:42:22.626Z,80.13
2019-03-26T12:43:22.582Z,80.75
2019-03-26T12:44:22.598Z,79.20
2019-03-26T12:45:22.560Z,79.27
2019-03-26T12:46:22.563Z,79.06
2019-03-26T12:47:22.546Z,78.72
2019-03-26T12:48:22.533Z,79.33
2019-03-26T12:49:22.516Z,78.96
2019-03-26T12:50:22.511Z,78.03
2019-03-26T12:51:22.499Z,79.06
2019-03-26T12:52:22.571Z,78.51
2019-03-26T12:53:22.477Z,78.00
2019-03-26T12:54:22.465Z,78.30
2019-03-26T12:55:22.475Z,78.10